sensor_id;sensor_type;location;lat;lon;timestamp;temperature;humidity
37910;DHT22;23741;49.446;8.754;2022-07-23T00:01:20;26.80;52.30
37910;DHT22;23741;49.446;8.754;2022-07-23T00:03:28;26.70;52.40
37910;DHT22;23741;49.446;8.754;2022-07-23T00:05:30;26.70;52.40
37910;DHT22;23741;49.446;8.754;2022-07-23T00:07:31;26.70;52.40
37910;DHT22;23741;49.446;8.754;2022-07-23T00:09:33;26.70;52.20
37910;DHT22;23741;49.446;8.754;2022-07-23T00:11:35;26.70;52.20
37910;DHT22;23741;49.446;8.754;2022-07-23T00:13:36;26.70;52.40
37910;DHT22;23741;49.446;8.754;2022-07-23T00:15:38;26.70;52.40
37910;DHT22;23741;49.446;8.754;2022-07-23T00:17:40;26.70;52.70
37910;DHT22;23741;49.446;8.754;2022-07-23T00:19:42;26.60;52.50
37910;DHT22;23741;49.446;8.754;2022-07-23T00:21:43;26.60;52.40
37910;DHT22;23741;49.446;8.754;2022-07-23T00:23:46;26.60;52.50
37910;DHT22;23741;49.446;8.754;2022-07-23T00:25:47;26.60;52.40
37910;DHT22;23741;49.446;8.754;2022-07-23T00:27:49;26.60;52.50
37910;DHT22;23741;49.446;8.754;2022-07-23T00:29:51;26.60;52.60
37910;DHT22;23741;49.446;8.754;2022-07-23T00:31:53;26.60;52.50
37910;DHT22;23741;49.446;8.754;2022-07-23T00:33:54;26.60;52.70
37910;DHT22;23741;49.446;8.754;2022-07-23T00:35:59;26.60;52.70
37910;DHT22;23741;49.446;8.754;2022-07-23T00:38:01;26.60;52.80
37910;DHT22;23741;49.446;8.754;2022-07-23T00:40:03;26.50;52.80
37910;DHT22;23741;49.446;8.754;2022-07-23T00:42:05;26.50;52.70
37910;DHT22;23741;49.446;8.754;2022-07-23T00:44:14;26.50;52.70
37910;DHT22;23741;49.446;8.754;2022-07-23T00:46:19;26.50;52.80
37910;DHT22;23741;49.446;8.754;2022-07-23T00:48:21;26.50;52.80
37910;DHT22;23741;49.446;8.754;2022-07-23T00:50:23;26.50;52.90
37910;DHT22;23741;49.446;8.754;2022-07-23T00:52:25;26.50;53.00
37910;DHT22;23741;49.446;8.754;2022-07-23T00:54:27;26.50;53.00
37910;DHT22;23741;49.446;8.754;2022-07-23T00:56:29;26.50;53.10
37910;DHT22;23741;49.446;8.754;2022-07-23T00:58:31;26.40;53.30
37910;DHT22;23741;49.446;8.754;2022-07-23T01:00:34;26.40;53.10
37910;DHT22;23741;49.446;8.754;2022-07-23T01:02:36;26.40;53.00
37910;DHT22;23741;49.446;8.754;2022-07-23T01:04:38;26.40;53.10
37910;DHT22;23741;49.446;8.754;2022-07-23T01:06:40;26.40;53.10
37910;DHT22;23741;49.446;8.754;2022-07-23T01:08:42;26.40;52.90
37910;DHT22;23741;49.446;8.754;2022-07-23T01:10:44;26.40;53.20
37910;DHT22;23741;49.446;8.754;2022-07-23T01:12:46;26.30;53.20
37910;DHT22;23741;49.446;8.754;2022-07-23T01:14:54;26.30;53.20
37910;DHT22;23741;49.446;8.754;2022-07-23T01:16:56;26.30;53.80
37910;DHT22;23741;49.446;8.754;2022-07-23T01:18:58;26.30;53.30
37910;DHT22;23741;49.446;8.754;2022-07-23T01:21:01;26.30;53.10
37910;DHT22;23741;49.446;8.754;2022-07-23T01:23:03;26.30;53.20
37910;DHT22;23741;49.446;8.754;2022-07-23T01:25:05;26.30;53.40
37910;DHT22;23741;49.446;8.754;2022-07-23T01:27:07;26.20;53.20
37910;DHT22;23741;49.446;8.754;2022-07-23T01:29:11;26.30;53.40
37910;DHT22;23741;49.446;8.754;2022-07-23T01:31:14;26.20;53.40
37910;DHT22;23741;49.446;8.754;2022-07-23T01:33:15;26.20;53.40
37910;DHT22;23741;49.446;8.754;2022-07-23T01:35:17;26.20;53.40
37910;DHT22;23741;49.446;8.754;2022-07-23T01:37:21;26.20;53.50
37910;DHT22;23741;49.446;8.754;2022-07-23T01:39:23;26.20;53.40
37910;DHT22;23741;49.446;8.754;2022-07-23T01:41:27;26.10;53.50
37910;DHT22;23741;49.446;8.754;2022-07-23T01:43:28;26.10;53.50
37910;DHT22;23741;49.446;8.754;2022-07-23T01:45:30;26.10;53.50
37910;DHT22;23741;49.446;8.754;2022-07-23T01:47:32;26.10;53.50
37910;DHT22;23741;49.446;8.754;2022-07-23T01:49:34;26.10;53.40
37910;DHT22;23741;49.446;8.754;2022-07-23T01:51:59;26.10;53.50
37910;DHT22;23741;49.446;8.754;2022-07-23T01:54:07;26.00;53.60
37910;DHT22;23741;49.446;8.754;2022-07-23T01:56:09;26.00;53.50
37910;DHT22;23741;49.446;8.754;2022-07-23T01:58:11;26.00;53.90
37910;DHT22;23741;49.446;8.754;2022-07-23T02:00:13;25.90;53.70
37910;DHT22;23741;49.446;8.754;2022-07-23T02:02:16;26.00;53.90
37910;DHT22;23741;49.446;8.754;2022-07-23T02:04:18;25.90;53.80
37910;DHT22;23741;49.446;8.754;2022-07-23T02:06:21;25.90;53.80
37910;DHT22;23741;49.446;8.754;2022-07-23T02:08:24;25.90;53.80
37910;DHT22;23741;49.446;8.754;2022-07-23T02:10:28;25.80;53.90
37910;DHT22;23741;49.446;8.754;2022-07-23T02:12:30;25.80;53.70
37910;DHT22;23741;49.446;8.754;2022-07-23T02:14:32;25.80;53.80
37910;DHT22;23741;49.446;8.754;2022-07-23T02:16:33;25.80;53.90
37910;DHT22;23741;49.446;8.754;2022-07-23T02:18:36;25.80;53.80
37910;DHT22;23741;49.446;8.754;2022-07-23T02:20:38;25.70;53.70
37910;DHT22;23741;49.446;8.754;2022-07-23T02:22:42;25.70;53.80
37910;DHT22;23741;49.446;8.754;2022-07-23T02:24:43;25.70;53.80
37910;DHT22;23741;49.446;8.754;2022-07-23T02:26:45;25.70;53.80
37910;DHT22;23741;49.446;8.754;2022-07-23T02:28:47;25.70;53.80
37910;DHT22;23741;49.446;8.754;2022-07-23T02:30:49;25.70;53.80
37910;DHT22;23741;49.446;8.754;2022-07-23T02:32:51;25.70;53.80
37910;DHT22;23741;49.446;8.754;2022-07-23T02:34:52;25.70;53.80
37910;DHT22;23741;49.446;8.754;2022-07-23T02:36:55;25.70;53.80
37910;DHT22;23741;49.446;8.754;2022-07-23T02:38:57;25.70;53.80
37910;DHT22;23741;49.446;8.754;2022-07-23T02:41:01;25.70;53.80
37910;DHT22;23741;49.446;8.754;2022-07-23T02:43:03;25.70;53.80
37910;DHT22;23741;49.446;8.754;2022-07-23T02:45:05;25.60;53.80
37910;DHT22;23741;49.446;8.754;2022-07-23T02:47:07;25.60;53.70
37910;DHT22;23741;49.446;8.754;2022-07-23T02:49:09;25.60;53.80
37910;DHT22;23741;49.446;8.754;2022-07-23T02:51:11;25.60;53.60
37910;DHT22;23741;49.446;8.754;2022-07-23T02:53:21;25.60;53.40
37910;DHT22;23741;49.446;8.754;2022-07-23T02:55:22;25.60;53.30
37910;DHT22;23741;49.446;8.754;2022-07-23T02:57:24;25.50;53.00
37910;DHT22;23741;49.446;8.754;2022-07-23T02:59:26;25.50;53.00
37910;DHT22;23741;49.446;8.754;2022-07-23T03:01:28;25.50;53.20
37910;DHT22;23741;49.446;8.754;2022-07-23T03:03:30;25.50;53.10
37910;DHT22;23741;49.446;8.754;2022-07-23T03:05:31;25.50;53.20
37910;DHT22;23741;49.446;8.754;2022-07-23T03:07:33;25.50;53.20
37910;DHT22;23741;49.446;8.754;2022-07-23T03:09:35;25.50;53.20
37910;DHT22;23741;49.446;8.754;2022-07-23T03:11:37;25.50;53.30
37910;DHT22;23741;49.446;8.754;2022-07-23T03:13:39;25.50;53.40
37910;DHT22;23741;49.446;8.754;2022-07-23T03:15:41;25.50;53.40
37910;DHT22;23741;49.446;8.754;2022-07-23T03:17:42;25.50;53.30
37910;DHT22;23741;49.446;8.754;2022-07-23T03:19:44;25.50;53.40
37910;DHT22;23741;49.446;8.754;2022-07-23T03:21:46;25.40;53.60
37910;DHT22;23741;49.446;8.754;2022-07-23T03:23:48;25.40;53.50
37910;DHT22;23741;49.446;8.754;2022-07-23T03:25:50;25.40;53.50
37910;DHT22;23741;49.446;8.754;2022-07-23T03:27:56;25.40;53.50
37910;DHT22;23741;49.446;8.754;2022-07-23T03:30:00;25.40;53.60
37910;DHT22;23741;49.446;8.754;2022-07-23T03:32:02;25.40;53.90
37910;DHT22;23741;49.446;8.754;2022-07-23T03:34:04;25.40;53.80
37910;DHT22;23741;49.446;8.754;2022-07-23T03:36:06;25.40;53.90
37910;DHT22;23741;49.446;8.754;2022-07-23T03:38:14;25.40;53.80
37910;DHT22;23741;49.446;8.754;2022-07-23T03:40:15;25.40;54.10
37910;DHT22;23741;49.446;8.754;2022-07-23T03:42:18;25.30;53.90
37910;DHT22;23741;49.446;8.754;2022-07-23T03:44:20;25.30;54.00
37910;DHT22;23741;49.446;8.754;2022-07-23T03:46:22;25.30;54.00
37910;DHT22;23741;49.446;8.754;2022-07-23T03:48:24;25.30;54.10
37910;DHT22;23741;49.446;8.754;2022-07-23T03:50:26;25.30;54.00
37910;DHT22;23741;49.446;8.754;2022-07-23T03:52:27;25.20;53.90
37910;DHT22;23741;49.446;8.754;2022-07-23T03:54:29;25.30;54.00
37910;DHT22;23741;49.446;8.754;2022-07-23T03:56:31;25.30;54.00
37910;DHT22;23741;49.446;8.754;2022-07-23T03:58:33;25.20;53.60
37910;DHT22;23741;49.446;8.754;2022-07-23T04:00:35;25.20;53.60
37910;DHT22;23741;49.446;8.754;2022-07-23T04:02:37;25.20;53.40
37910;DHT22;23741;49.446;8.754;2022-07-23T04:04:39;25.20;53.60
37910;DHT22;23741;49.446;8.754;2022-07-23T04:06:41;25.20;53.60
37910;DHT22;23741;49.446;8.754;2022-07-23T04:08:43;25.10;53.40
37910;DHT22;23741;49.446;8.754;2022-07-23T04:10:44;25.10;53.40
37910;DHT22;23741;49.446;8.754;2022-07-23T04:12:48;25.10;53.60
37910;DHT22;23741;49.446;8.754;2022-07-23T04:14:50;25.10;53.50
37910;DHT22;23741;49.446;8.754;2022-07-23T04:16:52;25.10;53.60
37910;DHT22;23741;49.446;8.754;2022-07-23T04:18:54;25.10;53.60
37910;DHT22;23741;49.446;8.754;2022-07-23T04:20:57;25.10;53.60
37910;DHT22;23741;49.446;8.754;2022-07-23T04:22:59;25.10;53.70
37910;DHT22;23741;49.446;8.754;2022-07-23T04:25:02;25.10;53.80
37910;DHT22;23741;49.446;8.754;2022-07-23T04:27:04;25.10;53.80
37910;DHT22;23741;49.446;8.754;2022-07-23T04:29:06;25.10;53.90
37910;DHT22;23741;49.446;8.754;2022-07-23T04:31:08;25.10;54.10
37910;DHT22;23741;49.446;8.754;2022-07-23T04:33:12;25.10;54.10
37910;DHT22;23741;49.446;8.754;2022-07-23T04:35:16;25.10;54.30
37910;DHT22;23741;49.446;8.754;2022-07-23T04:37:18;25.20;54.30
37910;DHT22;23741;49.446;8.754;2022-07-23T04:39:20;25.10;54.60
37910;DHT22;23741;49.446;8.754;2022-07-23T04:41:22;25.10;54.90
37910;DHT22;23741;49.446;8.754;2022-07-23T04:43:24;25.10;54.90
37910;DHT22;23741;49.446;8.754;2022-07-23T04:45:25;25.20;55.10
37910;DHT22;23741;49.446;8.754;2022-07-23T04:47:30;25.20;55.00
37910;DHT22;23741;49.446;8.754;2022-07-23T04:49:33;25.10;55.20
37910;DHT22;23741;49.446;8.754;2022-07-23T04:51:34;25.10;55.00
37910;DHT22;23741;49.446;8.754;2022-07-23T04:53:37;25.10;55.00
37910;DHT22;23741;49.446;8.754;2022-07-23T04:55:39;25.10;55.20
37910;DHT22;23741;49.446;8.754;2022-07-23T04:57:41;25.10;55.20
37910;DHT22;23741;49.446;8.754;2022-07-23T04:59:43;25.00;55.30
37910;DHT22;23741;49.446;8.754;2022-07-23T05:01:46;25.00;55.50
37910;DHT22;23741;49.446;8.754;2022-07-23T05:03:47;25.00;55.40
37910;DHT22;23741;49.446;8.754;2022-07-23T05:05:50;25.00;55.10
37910;DHT22;23741;49.446;8.754;2022-07-23T05:07:53;25.00;55.10
37910;DHT22;23741;49.446;8.754;2022-07-23T05:09:54;25.00;54.90
37910;DHT22;23741;49.446;8.754;2022-07-23T05:11:56;25.00;55.10
37910;DHT22;23741;49.446;8.754;2022-07-23T05:13:59;25.00;54.90
37910;DHT22;23741;49.446;8.754;2022-07-23T05:16:01;25.00;54.90
37910;DHT22;23741;49.446;8.754;2022-07-23T05:18:03;25.00;55.30
37910;DHT22;23741;49.446;8.754;2022-07-23T05:20:06;24.90;55.00
37910;DHT22;23741;49.446;8.754;2022-07-23T05:22:08;24.90;55.20
37910;DHT22;23741;49.446;8.754;2022-07-23T05:24:10;24.90;55.40
37910;DHT22;23741;49.446;8.754;2022-07-23T05:26:12;24.90;55.70
37910;DHT22;23741;49.446;8.754;2022-07-23T05:28:13;24.90;55.50
37910;DHT22;23741;49.446;8.754;2022-07-23T05:30:15;24.90;55.40
37910;DHT22;23741;49.446;8.754;2022-07-23T05:32:19;24.90;55.50
37910;DHT22;23741;49.446;8.754;2022-07-23T05:34:29;24.80;55.50
37910;DHT22;23741;49.446;8.754;2022-07-23T05:36:32;24.80;55.70
37910;DHT22;23741;49.446;8.754;2022-07-23T05:38:35;24.80;55.70
37910;DHT22;23741;49.446;8.754;2022-07-23T05:40:37;24.70;55.90
37910;DHT22;23741;49.446;8.754;2022-07-23T05:42:40;24.70;55.90
37910;DHT22;23741;49.446;8.754;2022-07-23T05:44:42;24.70;56.10
37910;DHT22;23741;49.446;8.754;2022-07-23T05:46:44;24.70;56.30
37910;DHT22;23741;49.446;8.754;2022-07-23T05:48:51;24.70;56.50
37910;DHT22;23741;49.446;8.754;2022-07-23T05:51:11;24.60;56.30
37910;DHT22;23741;49.446;8.754;2022-07-23T05:53:14;24.70;56.50
37910;DHT22;23741;49.446;8.754;2022-07-23T05:55:34;24.70;56.70
37910;DHT22;23741;49.446;8.754;2022-07-23T05:57:36;24.60;56.60
37910;DHT22;23741;49.446;8.754;2022-07-23T05:59:38;24.60;56.70
37910;DHT22;23741;49.446;8.754;2022-07-23T06:01:39;24.60;57.70
37910;DHT22;23741;49.446;8.754;2022-07-23T06:03:44;24.60;57.00
37910;DHT22;23741;49.446;8.754;2022-07-23T06:05:46;24.60;56.80
37910;DHT22;23741;49.446;8.754;2022-07-23T06:07:48;24.60;56.90
37910;DHT22;23741;49.446;8.754;2022-07-23T06:09:50;24.60;57.10
37910;DHT22;23741;49.446;8.754;2022-07-23T06:11:52;24.60;57.10
37910;DHT22;23741;49.446;8.754;2022-07-23T06:13:56;24.60;57.00
37910;DHT22;23741;49.446;8.754;2022-07-23T06:16:08;24.60;56.90
37910;DHT22;23741;49.446;8.754;2022-07-23T06:18:10;24.60;56.80
37910;DHT22;23741;49.446;8.754;2022-07-23T06:20:13;24.60;56.90
37910;DHT22;23741;49.446;8.754;2022-07-23T06:22:16;24.60;57.20
37910;DHT22;23741;49.446;8.754;2022-07-23T06:24:18;24.60;57.30
37910;DHT22;23741;49.446;8.754;2022-07-23T06:26:20;24.60;57.10
37910;DHT22;23741;49.446;8.754;2022-07-23T06:28:21;24.60;57.30
37910;DHT22;23741;49.446;8.754;2022-07-23T06:30:24;24.60;57.20
37910;DHT22;23741;49.446;8.754;2022-07-23T06:32:26;24.60;57.70
37910;DHT22;23741;49.446;8.754;2022-07-23T06:34:28;24.60;57.60
37910;DHT22;23741;49.446;8.754;2022-07-23T06:36:30;24.60;57.80
37910;DHT22;23741;49.446;8.754;2022-07-23T06:38:32;24.60;57.60
37910;DHT22;23741;49.446;8.754;2022-07-23T06:40:35;24.60;57.60
37910;DHT22;23741;49.446;8.754;2022-07-23T06:42:36;24.60;57.70
37910;DHT22;23741;49.446;8.754;2022-07-23T06:44:41;24.60;57.80
37910;DHT22;23741;49.446;8.754;2022-07-23T06:46:43;24.60;57.90
37910;DHT22;23741;49.446;8.754;2022-07-23T06:48:45;24.60;57.60
37910;DHT22;23741;49.446;8.754;2022-07-23T06:50:47;24.60;58.10
37910;DHT22;23741;49.446;8.754;2022-07-23T06:52:48;24.60;57.90
37910;DHT22;23741;49.446;8.754;2022-07-23T06:54:50;24.60;57.80
37910;DHT22;23741;49.446;8.754;2022-07-23T06:56:52;24.70;57.90
37910;DHT22;23741;49.446;8.754;2022-07-23T06:58:54;24.60;57.70
37910;DHT22;23741;49.446;8.754;2022-07-23T07:00:55;24.70;58.00
37910;DHT22;23741;49.446;8.754;2022-07-23T07:02:58;24.70;57.90
37910;DHT22;23741;49.446;8.754;2022-07-23T07:05:00;24.70;59.10
37910;DHT22;23741;49.446;8.754;2022-07-23T07:07:06;24.70;58.10
37910;DHT22;23741;49.446;8.754;2022-07-23T07:09:08;24.70;58.00
37910;DHT22;23741;49.446;8.754;2022-07-23T07:11:10;24.70;58.00
37910;DHT22;23741;49.446;8.754;2022-07-23T07:13:12;24.80;58.30
37910;DHT22;23741;49.446;8.754;2022-07-23T07:15:14;24.80;58.30
37910;DHT22;23741;49.446;8.754;2022-07-23T07:17:15;24.80;58.30
37910;DHT22;23741;49.446;8.754;2022-07-23T07:19:17;24.80;58.20
37910;DHT22;23741;49.446;8.754;2022-07-23T07:21:19;24.80;58.00
37910;DHT22;23741;49.446;8.754;2022-07-23T07:23:21;24.90;58.40
37910;DHT22;23741;49.446;8.754;2022-07-23T07:25:22;24.90;58.30
37910;DHT22;23741;49.446;8.754;2022-07-23T07:27:24;24.90;58.20
37910;DHT22;23741;49.446;8.754;2022-07-23T07:29:26;24.90;58.10
37910;DHT22;23741;49.446;8.754;2022-07-23T07:31:28;24.90;58.20
37910;DHT22;23741;49.446;8.754;2022-07-23T07:33:30;24.90;57.80
37910;DHT22;23741;49.446;8.754;2022-07-23T07:35:32;24.90;57.70
37910;DHT22;23741;49.446;8.754;2022-07-23T07:37:34;24.90;57.90
37910;DHT22;23741;49.446;8.754;2022-07-23T07:39:36;24.90;57.90
37910;DHT22;23741;49.446;8.754;2022-07-23T07:41:37;24.90;58.20
37910;DHT22;23741;49.446;8.754;2022-07-23T07:43:39;24.90;58.10
37910;DHT22;23741;49.446;8.754;2022-07-23T07:45:41;24.90;57.90
37910;DHT22;23741;49.446;8.754;2022-07-23T07:47:42;24.90;57.90
37910;DHT22;23741;49.446;8.754;2022-07-23T07:49:44;25.00;57.80
37910;DHT22;23741;49.446;8.754;2022-07-23T07:51:46;25.00;57.70
37910;DHT22;23741;49.446;8.754;2022-07-23T07:53:48;25.00;57.80
37910;DHT22;23741;49.446;8.754;2022-07-23T07:55:50;25.00;57.70
37910;DHT22;23741;49.446;8.754;2022-07-23T07:57:52;25.00;57.60
37910;DHT22;23741;49.446;8.754;2022-07-23T07:59:54;25.00;57.80
37910;DHT22;23741;49.446;8.754;2022-07-23T08:01:57;25.10;57.70
37910;DHT22;23741;49.446;8.754;2022-07-23T08:03:59;25.10;57.60
37910;DHT22;23741;49.446;8.754;2022-07-23T08:06:01;25.10;57.60
37910;DHT22;23741;49.446;8.754;2022-07-23T08:08:03;25.20;57.70
37910;DHT22;23741;49.446;8.754;2022-07-23T08:10:05;25.20;57.70
37910;DHT22;23741;49.446;8.754;2022-07-23T08:12:07;25.20;57.80
37910;DHT22;23741;49.446;8.754;2022-07-23T08:14:09;25.30;57.70
37910;DHT22;23741;49.446;8.754;2022-07-23T08:16:12;25.30;57.60
37910;DHT22;23741;49.446;8.754;2022-07-23T08:18:14;25.40;57.80
37910;DHT22;23741;49.446;8.754;2022-07-23T08:20:17;25.40;57.70
37910;DHT22;23741;49.446;8.754;2022-07-23T08:22:19;25.40;57.60
37910;DHT22;23741;49.446;8.754;2022-07-23T08:24:21;25.50;57.60
37910;DHT22;23741;49.446;8.754;2022-07-23T08:26:23;25.50;57.50
37910;DHT22;23741;49.446;8.754;2022-07-23T08:28:25;25.50;57.30
37910;DHT22;23741;49.446;8.754;2022-07-23T08:30:27;25.60;57.30
37910;DHT22;23741;49.446;8.754;2022-07-23T08:32:29;25.60;57.40
37910;DHT22;23741;49.446;8.754;2022-07-23T08:34:45;25.60;57.30
37910;DHT22;23741;49.446;8.754;2022-07-23T08:36:47;25.60;57.30
37910;DHT22;23741;49.446;8.754;2022-07-23T08:38:48;25.70;57.30
37910;DHT22;23741;49.446;8.754;2022-07-23T08:40:52;25.70;57.40
37910;DHT22;23741;49.446;8.754;2022-07-23T08:42:53;25.70;57.40
37910;DHT22;23741;49.446;8.754;2022-07-23T08:44:55;25.70;57.40
37910;DHT22;23741;49.446;8.754;2022-07-23T08:46:57;25.70;57.30
37910;DHT22;23741;49.446;8.754;2022-07-23T08:48:59;25.70;57.30
37910;DHT22;23741;49.446;8.754;2022-07-23T08:51:03;25.70;57.30
37910;DHT22;23741;49.446;8.754;2022-07-23T08:53:06;25.80;57.20
37910;DHT22;23741;49.446;8.754;2022-07-23T08:55:08;25.80;57.90
37910;DHT22;23741;49.446;8.754;2022-07-23T08:57:09;25.80;57.10
37910;DHT22;23741;49.446;8.754;2022-07-23T08:59:11;25.90;57.20
37910;DHT22;23741;49.446;8.754;2022-07-23T09:01:14;25.90;57.30
37910;DHT22;23741;49.446;8.754;2022-07-23T09:03:20;25.90;57.20
37910;DHT22;23741;49.446;8.754;2022-07-23T09:05:22;25.90;56.90
37910;DHT22;23741;49.446;8.754;2022-07-23T09:07:24;26.00;56.80
37910;DHT22;23741;49.446;8.754;2022-07-23T09:09:26;26.00;56.60
37910;DHT22;23741;49.446;8.754;2022-07-23T09:11:31;26.00;56.70
37910;DHT22;23741;49.446;8.754;2022-07-23T09:15:50;26.00;56.40
37910;DHT22;23741;49.446;8.754;2022-07-23T09:17:54;26.10;56.50
37910;DHT22;23741;49.446;8.754;2022-07-23T09:20:02;26.10;56.50
37910;DHT22;23741;49.446;8.754;2022-07-23T09:24:19;26.10;56.50
37910;DHT22;23741;49.446;8.754;2022-07-23T09:28:26;26.20;56.60
37910;DHT22;23741;49.446;8.754;2022-07-23T09:30:29;26.20;56.40
37910;DHT22;23741;49.446;8.754;2022-07-23T09:32:31;26.20;56.40
37910;DHT22;23741;49.446;8.754;2022-07-23T09:34:33;26.30;56.40
37910;DHT22;23741;49.446;8.754;2022-07-23T09:36:41;26.30;56.30
37910;DHT22;23741;49.446;8.754;2022-07-23T09:38:50;26.30;56.30
37910;DHT22;23741;49.446;8.754;2022-07-23T09:41:08;26.30;56.20
37910;DHT22;23741;49.446;8.754;2022-07-23T09:43:10;26.40;56.20
37910;DHT22;23741;49.446;8.754;2022-07-23T09:45:11;26.40;56.20
37910;DHT22;23741;49.446;8.754;2022-07-23T09:47:14;26.40;56.20
37910;DHT22;23741;49.446;8.754;2022-07-23T09:49:19;26.50;56.20
37910;DHT22;23741;49.446;8.754;2022-07-23T09:51:22;26.60;56.10
37910;DHT22;23741;49.446;8.754;2022-07-23T09:53:29;26.60;56.00
37910;DHT22;23741;49.446;8.754;2022-07-23T09:55:34;26.60;55.90
37910;DHT22;23741;49.446;8.754;2022-07-23T09:57:40;26.70;56.00
37910;DHT22;23741;49.446;8.754;2022-07-23T09:59:43;26.70;55.90
37910;DHT22;23741;49.446;8.754;2022-07-23T10:01:45;26.80;55.80
37910;DHT22;23741;49.446;8.754;2022-07-23T10:03:47;26.80;55.80
37910;DHT22;23741;49.446;8.754;2022-07-23T10:06:09;26.90;55.70
37910;DHT22;23741;49.446;8.754;2022-07-23T10:08:31;26.90;55.70
37910;DHT22;23741;49.446;8.754;2022-07-23T10:10:52;27.00;56.30
37910;DHT22;23741;49.446;8.754;2022-07-23T10:13:33;27.00;55.60
37910;DHT22;23741;49.446;8.754;2022-07-23T10:15:51;27.10;55.60
37910;DHT22;23741;49.446;8.754;2022-07-23T10:17:53;27.10;55.40
37910;DHT22;23741;49.446;8.754;2022-07-23T10:19:56;27.20;55.60
37910;DHT22;23741;49.446;8.754;2022-07-23T10:22:42;27.20;55.60
37910;DHT22;23741;49.446;8.754;2022-07-23T10:30:51;27.40;55.60
37910;DHT22;23741;49.446;8.754;2022-07-23T10:33:12;27.50;55.50
37910;DHT22;23741;49.446;8.754;2022-07-23T10:37:28;27.60;55.30
37910;DHT22;23741;49.446;8.754;2022-07-23T10:39:33;27.60;55.30
37910;DHT22;23741;49.446;8.754;2022-07-23T10:41:38;27.70;55.30
37910;DHT22;23741;49.446;8.754;2022-07-23T10:43:41;27.80;55.40
37910;DHT22;23741;49.446;8.754;2022-07-23T10:45:43;27.80;55.30
37910;DHT22;23741;49.446;8.754;2022-07-23T10:47:45;27.90;55.20
37910;DHT22;23741;49.446;8.754;2022-07-23T10:49:48;27.90;55.20
37910;DHT22;23741;49.446;8.754;2022-07-23T10:54:20;28.10;55.40
37910;DHT22;23741;49.446;8.754;2022-07-23T10:58:47;28.20;55.00
37910;DHT22;23741;49.446;8.754;2022-07-23T11:00:49;28.30;55.10
37910;DHT22;23741;49.446;8.754;2022-07-23T11:02:55;28.40;55.00
37910;DHT22;23741;49.446;8.754;2022-07-23T11:05:02;28.40;55.10
37910;DHT22;23741;49.446;8.754;2022-07-23T11:11:27;28.70;54.90
37910;DHT22;23741;49.446;8.754;2022-07-23T11:15:34;28.80;54.60
37910;DHT22;23741;49.446;8.754;2022-07-23T11:22:13;29.00;54.60
37910;DHT22;23741;49.446;8.754;2022-07-23T11:24:34;29.10;54.50
37910;DHT22;23741;49.446;8.754;2022-07-23T11:26:58;29.10;54.60
37910;DHT22;23741;49.446;8.754;2022-07-23T11:36:15;29.40;54.20
37910;DHT22;23741;49.446;8.754;2022-07-23T11:40:20;29.60;54.10
37910;DHT22;23741;49.446;8.754;2022-07-23T11:42:22;29.60;53.60
37910;DHT22;23741;49.446;8.754;2022-07-23T11:46:33;29.70;53.10
37910;DHT22;23741;49.446;8.754;2022-07-23T11:48:35;29.70;53.30
37910;DHT22;23741;49.446;8.754;2022-07-23T11:50:42;29.70;53.20
37910;DHT22;23741;49.446;8.754;2022-07-23T11:52:43;29.80;53.20
37910;DHT22;23741;49.446;8.754;2022-07-23T11:56:57;29.80;53.40
37910;DHT22;23741;49.446;8.754;2022-07-23T11:58:59;29.80;53.40
37910;DHT22;23741;49.446;8.754;2022-07-23T12:01:02;29.90;53.40
37910;DHT22;23741;49.446;8.754;2022-07-23T12:03:04;30.00;53.00
37910;DHT22;23741;49.446;8.754;2022-07-23T12:05:09;30.00;53.10
37910;DHT22;23741;49.446;8.754;2022-07-23T12:09:29;30.10;53.10
37910;DHT22;23741;49.446;8.754;2022-07-23T12:11:31;30.30;53.40
37910;DHT22;23741;49.446;8.754;2022-07-23T12:13:32;30.30;53.40
37910;DHT22;23741;49.446;8.754;2022-07-23T12:15:35;30.40;53.10
37910;DHT22;23741;49.446;8.754;2022-07-23T12:17:42;30.60;53.20
37910;DHT22;23741;49.446;8.754;2022-07-23T12:19:51;30.60;53.30
37910;DHT22;23741;49.446;8.754;2022-07-23T12:21:53;30.80;53.00
37910;DHT22;23741;49.446;8.754;2022-07-23T12:24:05;30.80;52.70
37910;DHT22;23741;49.446;8.754;2022-07-23T12:26:07;30.90;52.50
37910;DHT22;23741;49.446;8.754;2022-07-23T12:30:24;31.00;52.10
37910;DHT22;23741;49.446;8.754;2022-07-23T12:32:32;31.00;51.80
37910;DHT22;23741;49.446;8.754;2022-07-23T12:34:34;31.00;51.80
37910;DHT22;23741;49.446;8.754;2022-07-23T12:36:37;31.00;51.80
37910;DHT22;23741;49.446;8.754;2022-07-23T12:38:44;31.00;52.00
37910;DHT22;23741;49.446;8.754;2022-07-23T12:40:55;31.10;52.40
37910;DHT22;23741;49.446;8.754;2022-07-23T12:43:05;31.20;52.40
37910;DHT22;23741;49.446;8.754;2022-07-23T12:45:08;31.20;52.40
37910;DHT22;23741;49.446;8.754;2022-07-23T12:47:10;31.30;52.50
37910;DHT22;23741;49.446;8.754;2022-07-23T12:49:12;31.30;52.20
37910;DHT22;23741;49.446;8.754;2022-07-23T12:51:27;31.40;51.80
37910;DHT22;23741;49.446;8.754;2022-07-23T12:55:32;31.50;51.50
37910;DHT22;23741;49.446;8.754;2022-07-23T12:58:02;31.50;51.40
37910;DHT22;23741;49.446;8.754;2022-07-23T13:00:08;31.60;51.10
37910;DHT22;23741;49.446;8.754;2022-07-23T13:02:11;31.60;51.00
37910;DHT22;23741;49.446;8.754;2022-07-23T13:04:23;31.60;51.00
37910;DHT22;23741;49.446;8.754;2022-07-23T13:06:25;31.50;50.90
37910;DHT22;23741;49.446;8.754;2022-07-23T13:08:29;31.50;50.60
37910;DHT22;23741;49.446;8.754;2022-07-23T13:10:31;31.40;50.60
37910;DHT22;23741;49.446;8.754;2022-07-23T13:12:33;31.40;50.80
37910;DHT22;23741;49.446;8.754;2022-07-23T13:14:35;31.30;50.70
37910;DHT22;23741;49.446;8.754;2022-07-23T13:16:38;31.20;50.80
37910;DHT22;23741;49.446;8.754;2022-07-23T13:18:40;31.20;51.90
37910;DHT22;23741;49.446;8.754;2022-07-23T13:20:42;31.10;51.50
37910;DHT22;23741;49.446;8.754;2022-07-23T13:22:47;31.00;51.90
37910;DHT22;23741;49.446;8.754;2022-07-23T13:24:49;31.00;52.10
37910;DHT22;23741;49.446;8.754;2022-07-23T13:26:51;31.00;52.10
37910;DHT22;23741;49.446;8.754;2022-07-23T13:28:53;31.00;52.20
37910;DHT22;23741;49.446;8.754;2022-07-23T13:30:56;31.00;52.50
37910;DHT22;23741;49.446;8.754;2022-07-23T13:32:58;31.00;52.20
37910;DHT22;23741;49.446;8.754;2022-07-23T13:35:01;31.00;52.20
37910;DHT22;23741;49.446;8.754;2022-07-23T13:37:03;31.00;52.20
37910;DHT22;23741;49.446;8.754;2022-07-23T13:39:05;31.00;52.10
37910;DHT22;23741;49.446;8.754;2022-07-23T13:41:10;31.00;51.10
37910;DHT22;23741;49.446;8.754;2022-07-23T13:43:13;31.10;51.50
37910;DHT22;23741;49.446;8.754;2022-07-23T13:45:16;31.10;51.70
37910;DHT22;23741;49.446;8.754;2022-07-23T13:47:18;31.10;51.60
37910;DHT22;23741;49.446;8.754;2022-07-23T13:49:19;31.10;51.40
37910;DHT22;23741;49.446;8.754;2022-07-23T13:51:23;31.10;51.20